Time;durP1;ratioP1;P1;durP2;ratioP2;P2;SDS_P1;SDS_P2;PMS_P1;PMS_P2;Temp;Humidity;BMP_temperature;BMP_pressure;BME280_temperature;BME280_humidity;BME280_pressure;Samples;Min_cycle;Max_cycle;Signal;HPM_P1;HPM_P2
2023/04/26 00:01:59;;;;;;;3.13;1.50;;;;;;;20.94;33.20;101798.97;5065850;28;20047;-62
2023/04/26 00:04:27;;;;;;;2.65;1.42;;;;;;;20.98;32.96;101817.00;5064217;28;20056;-62
2023/04/26 00:06:53;;;;;;;2.95;1.40;;;;;;;20.99;33.06;101817.84;5062308;28;20048;-62
2023/04/26 00:09:19;;;;;;;2.50;1.40;;;;;;;20.92;33.10;101809.72;5066724;28;20044;-63
2023/04/26 00:11:44;;;;;;;2.08;1.27;;;;;;;20.88;33.21;101813.72;5062858;28;20425;-62
2023/04/26 00:14:10;;;;;;;3.55;2.13;;;;;;;20.97;33.38;101822.47;5066072;28;20064;-62
2023/04/26 00:16:35;;;;;;;2.92;1.48;;;;;;;20.93;33.19;101819.34;5060117;28;20080;-63
2023/04/26 00:19:01;;;;;;;2.40;1.40;;;;;;;20.84;32.86;101806.25;5064376;28;20115;-63
2023/04/26 00:21:27;;;;;;;3.50;1.65;;;;;;;20.92;33.05;101811.56;5049933;28;20047;-63
2023/04/26 00:23:53;;;;;;;2.90;1.45;;;;;;;20.89;33.20;101811.88;5065711;28;20045;-63
2023/04/26 00:26:19;;;;;;;3.00;1.50;;;;;;;20.84;33.37;101796.50;5045989;28;20482;-63
2023/04/26 00:28:44;;;;;;;1.80;1.17;;;;;;;20.87;33.19;101806.75;5027507;28;20154;-62
2023/04/26 00:31:14;;;;;;;1.52;1.13;;;;;;;20.88;33.23;101800.47;5063880;28;20029;-63
2023/04/26 00:33:40;;;;;;;2.90;1.38;;;;;;;20.83;33.31;101808.06;5046759;28;20067;-62
2023/04/26 00:36:06;;;;;;;2.28;1.35;;;;;;;20.90;33.29;101809.06;5044955;28;20063;-62
2023/04/26 00:38:32;;;;;;;1.88;1.60;;;;;;;20.81;33.29;101796.78;5054237;28;21304;-63
2023/04/26 00:40:58;;;;;;;2.70;1.63;;;;;;;20.84;33.33;101808.91;5065433;28;20722;-63
2023/04/26 00:43:23;;;;;;;2.38;1.33;;;;;;;20.85;33.27;101805.28;5065401;28;20049;-62
2023/04/26 00:45:50;;;;;;;1.75;1.38;;;;;;;20.56;33.34;101773.94;5045491;28;20045;-62
2023/04/26 00:48:16;;;;;;;2.05;1.48;;;;;;;20.83;33.25;101817.84;5044969;28;20131;-62
2023/04/26 00:50:42;;;;;;;2.28;1.45;;;;;;;20.80;33.27;101813.66;5045749;28;20094;-62
2023/04/26 00:53:09;;;;;;;2.45;1.60;;;;;;;20.72;33.52;101795.97;5043921;28;20470;-63
2023/04/26 00:55:35;;;;;;;4.47;1.60;;;;;;;20.77;33.21;101798.94;5045205;28;20552;-63
2023/04/26 00:58:01;;;;;;;3.25;1.90;;;;;;;20.77;33.39;101798.94;5054129;28;20031;-63
2023/04/26 01:00:26;;;;;;;1.95;1.35;;;;;;;20.77;33.43;101800.75;5059480;28;20044;-63
2023/04/26 01:02:52;;;;;;;2.10;1.48;;;;;;;20.78;33.30;101797.94;5042423;28;20041;-63
2023/04/26 01:05:18;;;;;;;1.33;0.95;;;;;;;20.71;33.47;101786.38;5060236;28;20062;-62
2023/04/26 01:07:44;;;;;;;2.28;1.33;;;;;;;20.74;33.29;101793.97;5065462;28;20029;-62
2023/04/26 01:10:09;;;;;;;2.45;1.33;;;;;;;20.73;33.59;101794.16;5062662;28;20486;-63
2023/04/26 01:12:36;;;;;;;1.85;1.27;;;;;;;20.74;33.40;101796.63;5061743;28;20044;-62
2023/04/26 01:15:04;;;;;;;1.55;1.15;;;;;;;20.76;33.42;101802.59;5059629;28;20036;-63
2023/04/26 01:17:29;;;;;;;3.72;1.60;;;;;;;20.71;33.30;101801.44;5044538;28;20033;-63
2023/04/26 01:19:56;;;;;;;1.92;1.30;;;;;;;20.71;33.41;101798.78;5042593;28;20119;-62
2023/04/26 01:22:21;;;;;;;3.60;1.40;;;;;;;20.70;33.47;101802.41;5061977;28;20048;-63
2023/04/26 01:24:50;;;;;;;2.38;1.38;;;;;;;20.70;33.39;101805.88;5063950;28;20037;-63
2023/04/26 01:27:16;;;;;;;2.38;1.38;;;;;;;20.68;33.80;101802.59;5064331;28;20032;-63
2023/04/26 01:29:42;;;;;;;1.85;1.13;;;;;;;20.69;33.58;101811.34;5063185;28;20949;-63
2023/04/26 01:32:08;;;;;;;2.13;1.40;;;;;;;20.64;33.64;101813.63;5062735;28;20040;-62
2023/04/26 01:34:33;;;;;;;3.25;1.48;;;;;;;20.67;33.52;101808.03;5063871;28;20386;-62
2023/04/26 01:37:02;;;;;;;1.92;1.35;;;;;;;20.65;33.49;101815.31;5063649;28;20032;-63
2023/04/26 01:39:27;;;;;;;1.20;1.10;;;;;;;20.68;33.48;101807.03;5063819;28;20390;-61
2023/04/26 01:41:53;;;;;;;2.47;1.58;;;;;;;20.60;33.46;101799.91;5063427;28;20045;-63
2023/04/26 01:44:18;;;;;;;1.75;1.17;;;;;;;20.64;33.50;101813.63;5040217;28;20075;-63
2023/04/26 01:46:44;;;;;;;1.17;1.08;;;;;;;20.54;33.62;101799.72;5063754;28;20037;-63
2023/04/26 01:49:11;;;;;;;2.38;1.23;;;;;;;20.63;33.76;101819.91;5058902;28;20041;-63
2023/04/26 01:51:37;;;;;;;2.65;1.30;;;;;;;20.67;33.45;101815.97;5061509;28;20043;-63
2023/04/26 01:54:06;;;;;;;3.50;1.40;;;;;;;20.61;33.66;101819.25;5063051;28;20278;-63
2023/04/26 01:56:31;;;;;;;1.95;1.20;;;;;;;20.63;33.64;101818.09;5044275;28;20559;-63
2023/04/26 01:58:59;;;;;;;3.75;1.40;;;;;;;20.64;33.53;101818.91;5040584;28;20408;-63
2023/04/26 02:01:24;;;;;;;2.63;1.42;;;;;;;20.59;33.66;101816.75;5044330;28;20522;-63
2023/04/26 02:03:50;;;;;;;1.45;1.23;;;;;;;20.63;33.47;101823.38;5043602;28;20040;-62
2023/04/26 02:06:18;;;;;;;1.83;1.30;;;;;;;20.58;33.49;101811.63;5045389;28;20504;-63
2023/04/26 02:08:44;;;;;;;2.42;1.33;;;;;;;20.60;33.70;101804.34;5064566;28;20040;-62
2023/04/26 02:11:10;;;;;;;2.55;1.65;;;;;;;20.56;33.57;101806.50;5061505;28;20068;-63
2023/04/26 02:13:36;;;;;;;1.55;1.17;;;;;;;20.64;33.75;101810.97;5062115;28;20150;-62
2023/04/26 02:16:02;;;;;;;1.55;0.93;;;;;;;20.62;33.70;101807.66;5059735;28;20186;-63
2023/04/26 02:18:28;;;;;;;3.67;1.42;;;;;;;20.62;33.68;101802.38;5041829;28;20606;-63
2023/04/26 02:20:54;;;;;;;1.27;0.95;;;;;;;20.60;33.51;101802.53;5043002;28;20043;-62
2023/04/26 02:23:20;;;;;;;2.08;1.30;;;;;;;20.59;33.81;101808.81;5040880;28;20037;-63
2023/04/26 02:25:47;;;;;;;0.85;0.85;;;;;;;20.58;33.81;101816.94;5040855;28;20036;-63
2023/04/26 02:28:14;;;;;;;1.98;1.35;;;;;;;20.60;33.71;101815.78;5060041;28;20036;-62
2023/04/26 02:30:40;;;;;;;1.67;1.35;;;;;;;20.56;33.73;101814.44;5058381;28;20052;-62
2023/04/26 02:33:07;;;;;;;1.38;1.27;;;;;;;20.50;33.76;101805.34;5041066;28;20052;-63
2023/04/26 02:35:33;;;;;;;1.02;0.68;;;;;;;20.51;33.67;101812.28;5044562;28;20028;-62
2023/04/26 02:37:59;;;;;;;3.17;1.58;;;;;;;20.58;33.67;101801.88;5061001;28;20020;-62
2023/04/26 02:40:24;;;;;;;1.83;1.30;;;;;;;20.57;33.67;101807.34;5060572;28;20047;-62
2023/04/26 02:42:50;;;;;;;2.55;1.20;;;;;;;20.58;33.83;101814.28;5060497;28;20040;-63
2023/04/26 02:45:16;;;;;;;2.15;1.17;;;;;;;20.54;33.96;101808.50;5044102;28;20036;-63
2023/04/26 02:47:41;;;;;;;2.15;1.20;;;;;;;20.52;33.79;101810.47;5041022;28;20044;-63
2023/04/26 02:50:08;;;;;;;1.10;1.00;;;;;;;20.51;33.74;101806.16;5044475;28;20040;-63
2023/04/26 02:52:36;;;;;;;1.05;1.00;;;;;;;20.49;33.78;101806.34;5043434;28;20033;-63
2023/04/26 02:55:03;;;;;;;1.77;1.15;;;;;;;20.51;33.89;101808.81;5045326;28;20028;-63
2023/04/26 02:57:30;;;;;;;1.85;1.40;;;;;;;20.54;33.82;101805.00;5061391;28;20029;-63
2023/04/26 02:59:56;;;;;;;0.93;0.90;;;;;;;20.54;33.80;101803.19;5042725;28;20065;-62
2023/04/26 03:02:22;;;;;;;1.23;1.08;;;;;;;20.57;33.87;101805.50;5043219;28;20078;-63
2023/04/26 03:04:48;;;;;;;2.78;1.40;;;;;;;20.57;33.83;101804.69;5046470;28;20679;-63
2023/04/26 03:07:14;;;;;;;1.63;1.38;;;;;;;20.47;33.92;101804.84;5041574;28;20043;-63
2023/04/26 03:09:39;;;;;;;1.05;0.70;;;;;;;20.42;33.88;101794.72;5042409;28;20033;-63
2023/04/26 03:12:08;;;;;;;1.33;1.17;;;;;;;20.49;33.91;101798.41;5062051;28;20045;-64
2023/04/26 03:14:35;;;;;;;2.40;1.27;;;;;;;20.56;33.76;101800.38;5045070;28;20045;-62
2023/04/26 03:17:01;;;;;;;1.35;1.17;;;;;;;20.49;33.90;101794.91;5045009;28;20074;-62
2023/04/26 03:19:29;;;;;;;1.52;1.08;;;;;;;20.48;33.72;101790.63;5041871;28;20040;-62
2023/04/26 03:21:55;;;;;;;1.75;0.93;;;;;;;20.49;33.84;101795.75;5041262;28;20045;-63
2023/04/26 03:24:22;;;;;;;1.30;1.15;;;;;;;20.47;34.04;101797.72;5043886;28;20078;-63
2023/04/26 03:26:48;;;;;;;2.47;1.55;;;;;;;20.51;33.71;101790.28;5042214;28;20147;-62
2023/04/26 03:29:15;;;;;;;2.35;1.15;;;;;;;20.44;33.89;101790.09;5059155;28;20109;-63
2023/04/26 03:31:40;;;;;;;1.40;1.20;;;;;;;20.45;33.93;101785.63;5061044;28;20055;-62
2023/04/26 03:34:06;;;;;;;2.15;1.52;;;;;;;20.45;33.80;101790.91;5058226;28;20743;-63
2023/04/26 03:36:33;;;;;;;2.22;0.90;;;;;;;20.47;33.77;101794.25;5062372;28;20742;-62
2023/04/26 03:38:59;;;;;;;1.30;0.98;;;;;;;20.43;33.81;101798.19;5042470;28;20063;-63
2023/04/26 03:41:25;;;;;;;1.48;0.98;;;;;;;20.48;33.80;101794.09;5045545;28;20530;-62
2023/04/26 03:43:52;;;;;;;1.33;1.00;;;;;;;20.44;33.95;101798.03;5043079;28;20107;-62
2023/04/26 03:46:18;;;;;;;2.22;1.25;;;;;;;20.44;34.01;101791.91;5046172;28;20032;-63
2023/04/26 03:48:45;;;;;;;2.65;1.25;;;;;;;20.43;33.99;101785.78;5048870;28;20816;-63
2023/04/26 03:51:10;;;;;;;2.67;1.00;;;;;;;20.40;33.94;101780.78;5053374;28;20060;-63
2023/04/26 03:53:37;;;;;;;2.60;1.42;;;;;;;20.40;33.89;101782.59;5047178;28;20032;-63
2023/04/26 03:56:02;;;;;;;2.05;1.20;;;;;;;20.39;33.74;101795.00;5046202;28;20516;-62
2023/04/26 03:58:30;;;;;;;1.52;1.10;;;;;;;20.40;34.13;101785.25;5048503;28;20036;-63
2023/04/26 04:00:57;;;;;;;1.38;1.00;;;;;;;20.37;34.03;101797.00;5041265;28;20028;-63
2023/04/26 04:03:23;;;;;;;1.60;1.13;;;;;;;20.40;34.06;101787.91;5063956;28;20048;-62
2023/04/26 04:10:10;;;;;;;1.13;1.02;;;;;;;20.38;34.06;101793.34;5066764;28;20044;-63
2023/04/26 04:12:37;;;;;;;1.20;1.00;;;;;;;20.39;34.00;101794.19;5048442;28;20047;-62
2023/04/26 04:15:03;;;;;;;1.52;1.42;;;;;;;20.36;34.04;101792.69;5066197;28;20036;-63
2023/04/26 04:17:31;;;;;;;1.65;1.08;;;;;;;20.35;34.09;101792.84;5049804;28;20060;-62
2023/04/26 04:19:56;;;;;;;2.72;1.25;;;;;;;20.34;33.99;101797.31;5047135;28;20035;-61
2023/04/26 04:22:22;;;;;;;1.17;0.95;;;;;;;20.37;34.00;101801.44;5047990;28;20444;-62
2023/04/26 04:24:48;;;;;;;1.25;0.95;;;;;;;20.31;34.08;101805.56;5066196;28;20033;-63
2023/04/26 04:27:15;;;;;;;1.27;0.93;;;;;;;20.36;34.05;101797.97;5048348;28;20048;-63
2023/04/26 04:29:43;;;;;;;1.15;1.00;;;;;;;20.29;34.18;101806.69;5065046;28;20028;-61
2023/04/26 04:32:09;;;;;;;1.58;0.82;;;;;;;20.32;34.06;101817.81;5049048;28;20039;-62
2023/04/26 04:34:35;;;;;;;1.88;1.30;;;;;;;20.27;34.09;101821.91;5047739;28;20098;-63
2023/04/26 04:37:03;;;;;;;0.85;0.80;;;;;;;20.20;33.99;101808.47;5059475;28;20043;-62
2023/04/26 04:39:29;;;;;;;0.80;0.80;;;;;;;20.22;34.16;101806.50;5051956;28;20069;-62
2023/04/26 04:41:54;;;;;;;1.85;1.02;;;;;;;20.22;34.19;101828.50;5045498;28;20033;-62
2023/04/26 04:44:22;;;;;;;1.42;1.33;;;;;;;20.32;34.01;101827.56;5047038;28;20040;-63
2023/04/26 04:46:49;;;;;;;1.02;0.95;;;;;;;20.26;34.06;101828.16;5054668;28;20533;-63
2023/04/26 04:49:14;;;;;;;1.30;1.20;;;;;;;20.25;34.07;101826.53;5045717;28;20048;-63
2023/04/26 04:51:40;;;;;;;1.33;0.95;;;;;;;20.27;34.17;101829.81;5057979;28;20039;-63
2023/04/26 04:54:13;;;;;;;1.23;1.13;;;;;;;20.29;34.08;101814.63;5049518;28;20119;-63
2023/04/26 04:56:39;;;;;;;0.73;0.73;;;;;;;20.20;34.08;101814.59;5065015;28;20381;-63
2023/04/26 04:59:06;;;;;;;1.20;1.02;;;;;;;20.22;34.12;101817.09;5045689;28;20032;-62
2023/04/26 05:01:33;;;;;;;1.48;1.05;;;;;;;20.22;34.13;101812.63;5048803;28;20551;-63
2023/04/26 05:04:02;;;;;;;1.55;0.85;;;;;;;20.19;34.19;101817.41;5044413;28;20070;-63
2023/04/26 05:06:28;;;;;;;0.80;0.70;;;;;;;20.19;34.22;101810.31;5049277;28;20029;-62
2023/04/26 05:08:55;;;;;;;1.92;0.95;;;;;;;20.20;34.16;101813.78;5048555;28;20047;-63
2023/04/26 05:11:20;;;;;;;1.27;0.93;;;;;;;20.18;34.13;101818.41;5066451;28;20517;-62
2023/04/26 05:13:47;;;;;;;2.10;1.02;;;;;;;20.16;34.20;101815.91;5065567;28;20048;-62
2023/04/26 05:16:13;;;;;;;0.90;0.90;;;;;;;20.15;34.19;101818.72;5050462;28;20034;-64
2023/04/26 05:18:39;;;;;;;0.82;0.80;;;;;;;20.19;34.08;101820.88;5057435;28;20025;-62
2023/04/26 05:21:05;;;;;;;0.90;0.68;;;;;;;20.17;34.20;101829.97;5045194;28;20040;-63
2023/04/26 05:23:30;;;;;;;1.20;0.80;;;;;;;20.15;34.32;101830.13;5048786;28;20029;-63
2023/04/26 05:26:00;;;;;;;2.00;0.88;;;;;;;20.20;34.08;101832.28;5047598;28;20040;-62
2023/04/26 05:28:52;;;;;;;1.17;1.10;;;;;;;20.15;34.19;101827.47;5040412;28;20048;-62
2023/04/26 05:31:25;;;;;;;1.75;1.02;;;;;;;20.19;34.17;101833.28;5046318;28;20048;-63
2023/04/26 05:34:17;;;;;;;1.50;1.33;;;;;;;20.14;33.94;101825.81;5060857;28;20052;-62
2023/04/26 05:36:47;;;;;;;1.63;1.08;;;;;;;20.18;34.09;101832.44;5028851;28;20037;-62
2023/04/26 05:39:13;;;;;;;2.65;1.08;;;;;;;20.17;34.12;101830.78;5048000;28;20036;-62
2023/04/26 05:41:38;;;;;;;1.65;1.17;;;;;;;20.17;34.10;101838.72;5043646;28;20125;-62
2023/04/26 05:44:04;;;;;;;2.95;1.10;;;;;;;20.16;34.14;101836.25;5063161;28;20241;-63
2023/04/26 05:46:30;;;;;;;2.05;1.20;;;;;;;20.08;34.12;101826.44;5043753;28;20752;-64
2023/04/26 05:48:56;;;;;;;0.63;0.60;;;;;;;20.13;34.18;101839.19;5063805;28;20055;-64
2023/04/26 05:51:21;;;;;;;1.17;1.00;;;;;;;20.14;34.21;101841.69;5062012;28;20599;-62
2023/04/26 05:53:47;;;;;;;2.33;0.93;;;;;;;20.15;34.17;101842.53;5044379;28;20629;-63
2023/04/26 05:56:13;;;;;;;1.00;1.00;;;;;;;20.13;34.22;101850.59;5045483;28;20032;-63
2023/04/26 05:58:39;;;;;;;1.58;0.98;;;;;;;20.12;34.18;101848.94;5048352;28;20037;-63
2023/04/26 06:01:05;;;;;;;2.40;1.20;;;;;;;20.17;34.12;101851.13;5047244;28;20041;-62
2023/04/26 06:03:30;;;;;;;2.78;1.00;;;;;;;20.14;34.18;101843.50;5049558;28;20689;-63
2023/04/26 06:05:57;;;;;;;2.67;1.08;;;;;;;20.20;34.04;101848.16;5064632;28;20489;-63
2023/04/26 06:08:23;;;;;;;1.42;0.95;;;;;;;20.20;34.01;101851.63;5047062;28;20768;-63
2023/04/26 06:10:49;;;;;;;1.08;0.80;;;;;;;20.08;34.17;101831.72;5046459;28;20045;-63
2023/04/26 06:13:15;;;;;;;1.48;0.88;;;;;;;20.22;34.10;101854.13;5050488;28;20028;-63
2023/04/26 06:15:41;;;;;;;1.25;1.15;;;;;;;20.24;33.91;101852.13;5049958;28;20044;-63
2023/04/26 06:18:07;;;;;;;2.22;1.20;;;;;;;20.32;33.84;101848.72;5048596;28;20024;-63
2023/04/26 06:20:33;;;;;;;1.38;0.88;;;;;;;20.49;33.74;101843.38;5050062;28;20037;-63
2023/04/26 06:22:58;;;;;;;2.47;1.10;;;;;;;20.80;33.45;101848.09;5061727;28;20036;-63
2023/04/26 06:25:24;;;;;;;0.95;0.73;;;;;;;21.54;32.52;101844.56;5060595;28;20044;-62
2023/04/26 06:27:49;;;;;;;1.83;0.90;;;;;;;21.88;32.07;101852.31;5044982;28;20040;-62
2023/04/26 06:30:15;;;;;;;0.73;0.73;;;;;;;21.92;31.52;101853.66;5045572;28;20036;-63
2023/04/26 06:32:45;;;;;;;2.28;1.48;;;;;;;21.79;31.79;101849.84;5047106;28;20543;-63
2023/04/26 06:35:10;;;;;;;2.40;0.98;;;;;;;21.66;32.23;101851.19;5046791;28;20040;-63
2023/04/26 06:37:37;;;;;;;1.10;0.82;;;;;;;21.56;32.19;101862.97;5062708;28;20032;-62
2023/04/26 06:40:04;;;;;;;1.05;0.95;;;;;;;21.48;32.41;101860.31;5057890;28;20036;-62
2023/04/26 06:42:30;;;;;;;1.58;1.20;;;;;;;21.41;32.66;101860.16;5053396;28;20624;-63
2023/04/26 06:45:25;;;;;;;1.50;0.93;;;;;;;21.30;33.13;101863.13;4989679;28;20057;-64
2023/04/26 06:47:52;;;;;;;0.93;0.93;;;;;;;21.25;33.17;101854.84;5062246;28;20449;-65
2023/04/26 06:50:17;;;;;;;1.77;1.38;;;;;;;21.26;32.97;101861.78;5047465;28;20826;-65
2023/04/26 06:52:43;;;;;;;1.52;1.10;;;;;;;21.22;32.98;101849.84;5060667;28;20051;-64
2023/04/26 06:55:09;;;;;;;0.63;0.63;;;;;;;21.21;33.21;101859.59;5064861;28;20040;-63
2023/04/26 06:57:34;;;;;;;1.52;0.90;;;;;;;21.17;33.01;101846.84;5063388;28;20039;-65
2023/04/26 07:00:00;;;;;;;2.90;1.02;;;;;;;21.24;33.05;101848.72;5063913;28;20048;-64
2023/04/26 07:02:26;;;;;;;2.10;0.93;;;;;;;21.12;33.25;101842.03;5062238;28;20071;-65
2023/04/26 07:04:51;;;;;;;1.23;0.70;;;;;;;21.18;33.39;101853.78;5059248;28;20538;-65
2023/04/26 07:07:17;;;;;;;1.60;1.10;;;;;;;21.15;33.38;101852.28;5066570;28;20106;-64
2023/04/26 07:09:43;;;;;;;3.40;0.93;;;;;;;21.19;33.37;101856.28;5065346;28;20066;-64
2023/04/26 07:12:12;;;;;;;0.85;0.80;;;;;;;21.12;33.11;101834.91;5063068;28;20044;-65
2023/04/26 07:14:39;;;;;;;1.08;0.80;;;;;;;21.25;33.27;101857.47;5067076;28;20357;-65
2023/04/26 07:17:11;;;;;;;2.05;1.10;;;;;;;21.24;33.38;101854.00;5048548;28;20955;-65
2023/04/26 07:19:36;;;;;;;1.30;1.02;;;;;;;21.24;33.50;101867.25;5065044;28;20155;-64
2023/04/26 07:22:03;;;;;;;2.25;1.40;;;;;;;21.27;33.46;101866.91;5063939;28;20122;-64
2023/04/26 07:24:28;;;;;;;1.45;1.10;;;;;;;21.21;33.28;101856.97;5060639;28;20098;-64
2023/04/26 07:26:54;;;;;;;1.25;1.00;;;;;;;21.24;33.31;101853.16;5044488;28;20293;-64
2023/04/26 07:29:20;;;;;;;3.53;1.23;;;;;;;21.21;33.32;101858.78;5063725;28;20036;-66
2023/04/26 07:31:46;;;;;;;1.20;1.10;;;;;;;21.22;33.40;101861.25;5056496;28;20044;-64
2023/04/26 07:34:12;;;;;;;1.25;1.08;;;;;;;21.23;33.34;101868.22;5067363;28;20459;-64
2023/04/26 07:36:37;;;;;;;0.90;0.90;;;;;;;21.22;33.14;101866.56;5062371;28;20068;-65
2023/04/26 07:39:04;;;;;;;1.30;0.93;;;;;;;21.18;33.12;101857.25;5067312;28;20478;-62
2023/04/26 07:41:30;;;;;;;1.20;1.00;;;;;;;21.21;33.25;101862.25;5065894;28;20032;-64
2023/04/26 07:43:55;;;;;;;1.80;1.23;;;;;;;21.24;33.11;101869.91;5072247;28;20050;-65
2023/04/26 07:46:21;;;;;;;1.48;0.82;;;;;;;21.24;33.23;101869.03;5071909;28;20036;-64
2023/04/26 07:48:46;;;;;;;1.45;0.98;;;;;;;21.17;33.44;101854.78;5051791;28;20531;-64
2023/04/26 07:51:12;;;;;;;1.88;1.15;;;;;;;21.21;33.18;101867.56;5067030;28;20037;-63
2023/04/26 07:53:39;;;;;;;1.88;1.20;;;;;;;21.20;33.37;101891.56;5064739;28;20039;-64
2023/04/26 07:56:08;;;;;;;3.35;1.25;;;;;;;21.19;33.40;101868.72;5065992;28;20048;-64
2023/04/26 07:58:35;;;;;;;1.83;1.20;;;;;;;21.22;33.22;101871.84;5072232;28;20601;-64
2023/04/26 08:01:01;;;;;;;3.17;1.05;;;;;;;21.25;33.12;101881.31;5071273;28;20532;-64
2023/04/26 08:03:27;;;;;;;3.10;1.10;;;;;;;21.19;33.22;101876.66;5070131;28;20135;-65
2023/04/26 08:05:53;;;;;;;2.22;1.25;;;;;;;21.24;33.12;101877.00;5067314;28;20049;-65
2023/04/26 08:08:20;;;;;;;2.97;1.38;;;;;;;21.23;33.34;101880.63;5069105;28;20064;-64
2023/04/26 08:10:46;;;;;;;3.30;1.38;;;;;;;21.21;33.33;101879.97;5068792;28;20037;-65
2023/04/26 08:13:12;;;;;;;2.67;1.00;;;;;;;21.21;33.10;101882.63;5074823;28;20094;-64
2023/04/26 08:15:37;;;;;;;1.40;1.15;;;;;;;21.22;33.04;101882.44;5070659;28;20052;-64
2023/04/26 08:18:03;;;;;;;1.10;0.88;;;;;;;21.23;33.18;101878.81;5067430;28;20051;-64
2023/04/26 08:20:28;;;;;;;1.05;0.77;;;;;;;21.19;33.22;101889.91;5068202;28;20033;-64
2023/04/26 08:22:55;;;;;;;1.55;1.25;;;;;;;21.22;33.03;101881.63;5067917;28;20440;-64
2023/04/26 08:25:22;;;;;;;2.10;1.05;;;;;;;21.20;33.28;101889.75;5071416;28;20040;-64
2023/04/26 08:27:48;;;;;;;2.60;0.90;;;;;;;21.21;33.10;101880.78;5069579;28;20214;-64
2023/04/26 08:30:13;;;;;;;1.35;1.17;;;;;;;21.19;33.25;101881.97;5063258;28;20041;-64
2023/04/26 08:32:39;;;;;;;2.45;1.10;;;;;;;21.16;33.14;101876.97;5076359;28;20067;-64
2023/04/26 08:35:05;;;;;;;1.30;1.20;;;;;;;21.18;33.06;101882.91;5072205;28;20093;-64
2023/04/26 08:37:31;;;;;;;2.67;1.00;;;;;;;21.31;33.16;101878.84;5069489;28;20527;-64
2023/04/26 08:39:56;;;;;;;1.05;0.90;;;;;;;21.49;32.57;101880.50;5067515;28;20618;-63
2023/04/26 08:42:26;;;;;;;1.85;1.20;;;;;;;21.70;32.06;101883.47;5066754;28;20032;-64
2023/04/26 08:44:52;;;;;;;1.40;1.15;;;;;;;21.70;32.17;101892.25;5069982;28;20036;-64
2023/04/26 08:47:26;;;;;;;1.38;1.00;;;;;;;21.62;32.24;101886.16;5066147;28;20672;-65
2023/04/26 08:49:58;;;;;;;0.98;0.95;;;;;;;21.54;32.44;101889.59;5069923;28;20033;-64
2023/04/26 08:52:27;;;;;;;1.70;0.95;;;;;;;21.51;32.69;101883.81;5069039;28;20044;-63
2023/04/26 08:54:55;;;;;;;1.38;1.27;;;;;;;21.36;32.80;101892.44;5065930;28;20033;-64
2023/04/26 08:57:21;;;;;;;1.92;1.15;;;;;;;21.38;33.10;101894.94;5046798;28;20033;-64
2023/04/26 08:59:48;;;;;;;2.03;1.02;;;;;;;21.36;32.98;101886.28;5068724;28;20144;-64
2023/04/26 09:02:17;;;;;;;2.45;1.23;;;;;;;21.38;32.79;101893.09;5067295;28;20044;-63
2023/04/26 09:04:45;;;;;;;3.08;1.35;;;;;;;21.36;32.96;101888.94;5051722;28;20108;-63
2023/04/26 09:07:29;;;;;;;2.83;1.38;;;;;;;21.39;32.92;101896.59;5069460;28;20153;-64
2023/04/26 09:09:57;;;;;;;1.20;1.10;;;;;;;21.34;32.84;101890.94;5068164;28;20501;-64
2023/04/26 09:12:23;;;;;;;2.30;1.25;;;;;;;21.35;32.74;101893.41;5067321;28;20040;-64
2023/04/26 09:14:48;;;;;;;1.67;1.15;;;;;;;21.32;32.92;101899.03;5052516;28;20044;-63
2023/04/26 09:17:28;;;;;;;2.42;1.35;;;;;;;21.37;32.90;101895.94;5066718;28;20028;-64
2023/04/26 09:19:54;;;;;;;2.38;1.23;;;;;;;21.33;32.78;101899.88;5059332;28;20255;-64
2023/04/26 09:22:35;;;;;;;4.00;1.40;;;;;;;21.32;32.97;101901.69;5067679;28;20115;-64
2023/04/26 09:25:03;;;;;;;2.45;1.38;;;;;;;21.33;32.86;101921.88;5067771;28;20526;-63
2023/04/26 09:27:34;;;;;;;1.75;1.42;;;;;;;21.35;33.01;101913.78;5063573;28;20036;-65
2023/04/26 09:30:27;;;;;;;1.52;1.20;;;;;;;21.31;32.84;101921.22;5071308;28;20036;-64
2023/04/26 09:33:05;;;;;;;2.00;1.20;;;;;;;21.29;32.92;101919.75;5064747;28;20186;-64
2023/04/26 09:35:33;;;;;;;1.83;1.20;;;;;;;21.25;32.80;101921.06;5066116;28;20036;-64
2023/04/26 09:38:06;;;;;;;1.45;1.20;;;;;;;21.23;33.09;101929.16;5075873;28;20028;-64
2023/04/26 09:40:37;;;;;;;2.40;1.20;;;;;;;21.22;32.92;101924.84;5073116;28;20040;-62
2023/04/26 09:43:10;;;;;;;1.38;1.08;;;;;;;21.23;33.05;101929.16;5068411;28;20032;-64
2023/04/26 09:45:43;;;;;;;1.65;1.25;;;;;;;21.22;32.95;101930.13;5067667;28;20045;-64
2023/04/26 09:48:15;;;;;;;1.83;1.30;;;;;;;21.20;32.92;101926.81;5066100;28;20052;-64
2023/04/26 09:50:43;;;;;;;1.80;1.15;;;;;;;21.15;33.08;101921.16;5068913;28;20089;-64
2023/04/26 09:53:09;;;;;;;1.73;1.40;;;;;;;21.16;33.22;101928.13;5069464;28;20071;-64
2023/04/26 09:55:35;;;;;;;1.20;1.13;;;;;;;21.11;33.07;101914.53;5067330;28;20164;-65
2023/04/26 09:58:08;;;;;;;2.13;1.30;;;;;;;21.17;33.04;101919.19;5069012;28;20176;-64
2023/04/26 10:00:34;;;;;;;1.30;1.20;;;;;;;21.22;33.19;101927.50;5062571;28;20102;-64
2023/04/26 10:03:00;;;;;;;2.67;1.52;;;;;;;21.18;33.29;101923.47;5068806;28;20613;-64
2023/04/26 10:05:26;;;;;;;1.35;1.25;;;;;;;21.20;33.04;101918.03;5049321;28;20057;-64
2023/04/26 10:07:51;;;;;;;1.10;1.00;;;;;;;21.19;33.12;101921.69;5069296;28;20048;-62
2023/04/26 10:10:18;;;;;;;2.53;1.30;;;;;;;21.19;33.04;101919.88;5063086;28;20125;-64
2023/04/26 10:12:44;;;;;;;2.00;1.40;;;;;;;21.16;33.29;101914.88;5070894;28;20048;-64
2023/04/26 10:15:11;;;;;;;1.80;1.15;;;;;;;21.14;33.14;101914.22;5065364;28;20104;-64
2023/04/26 10:17:37;;;;;;;2.17;1.45;;;;;;;21.17;32.98;101915.69;5066048;28;20053;-65
2023/04/26 10:20:07;;;;;;;1.40;1.25;;;;;;;21.15;33.22;101918.50;5067953;28;20514;-64
2023/04/26 10:22:39;;;;;;;2.17;1.40;;;;;;;21.12;33.17;101910.91;5070560;28;20036;-64
2023/04/26 10:25:07;;;;;;;1.88;1.63;;;;;;;21.04;33.07;101895.81;5063533;28;20128;-64
2023/04/26 10:27:42;;;;;;;2.55;1.42;;;;;;;21.11;33.24;101907.41;5063083;28;20387;-64
2023/04/26 10:30:09;;;;;;;1.20;1.10;;;;;;;21.13;33.18;101904.59;5063353;28;20663;-62
2023/04/26 10:32:56;;;;;;;2.72;1.60;;;;;;;21.08;33.24;101907.75;5065108;28;20099;-64
2023/04/26 10:35:31;;;;;;;2.45;1.45;;;;;;;21.16;32.95;101901.63;5061707;28;20029;-63
2023/04/26 10:38:05;;;;;;;3.60;1.65;;;;;;;21.23;32.96;101902.66;5061311;28;20473;-63
2023/04/26 10:40:33;;;;;;;1.35;1.25;;;;;;;21.41;32.72;101884.81;5060540;28;20029;-64
2023/04/26 10:43:08;;;;;;;2.83;1.20;;;;;;;21.57;32.22;101897.25;5067342;28;20048;-64
2023/04/26 10:45:35;;;;;;;2.17;1.27;;;;;;;21.57;32.19;101907.03;5061477;28;20028;-65
2023/04/26 10:48:19;;;;;;;4.38;2.45;;;;;;;21.52;32.51;101907.50;5062989;28;21485;-66
2023/04/26 10:51:11;;;;;;;2.10;1.50;;;;;;;21.38;32.61;101908.19;5058519;28;20052;-66
2023/04/26 10:53:45;;;;;;;1.58;1.27;;;;;;;21.41;32.43;101903.38;5060375;28;20044;-65
2023/04/26 10:56:26;;;;;;;2.70;1.42;;;;;;;21.36;32.47;101910.13;5065593;28;20047;-69
2023/04/26 10:59:12;;;;;;;1.85;1.40;;;;;;;21.18;32.99;101902.28;5063295;28;20032;-66
2023/04/26 11:01:39;;;;;;;2.67;1.65;;;;;;;21.32;32.87;101911.47;5063197;28;20641;-66
2023/04/26 11:04:09;;;;;;;2.58;1.60;;;;;;;21.17;32.97;101903.28;5062203;28;20040;-66
2023/04/26 11:06:52;;;;;;;2.65;1.35;;;;;;;21.22;33.03;101916.06;5065757;28;20383;-67
2023/04/26 11:09:47;;;;;;;1.83;1.30;;;;;;;21.21;32.94;101915.22;5065230;28;20128;-66
2023/04/26 11:12:14;;;;;;;1.45;1.35;;;;;;;21.09;33.07;101906.75;5065313;28;20048;-66
2023/04/26 11:14:41;;;;;;;1.50;1.30;;;;;;;21.04;33.38;101908.25;5063475;28;20045;-65
2023/04/26 11:17:07;;;;;;;3.35;1.30;;;;;;;20.98;33.62;101914.16;5064636;28;20145;-66
2023/04/26 11:19:33;;;;;;;2.53;1.70;;;;;;;21.02;33.41;101916.34;5065135;28;20756;-66
2023/04/26 11:22:00;;;;;;;1.80;1.40;;;;;;;20.95;33.52;101910.03;5062878;28;20048;-66
2023/04/26 11:24:30;;;;;;;2.50;1.27;;;;;;;21.00;33.45;101909.53;5064211;28;20390;-66
2023/04/26 11:26:57;;;;;;;2.00;1.38;;;;;;;21.00;33.46;101910.34;5067535;28;20128;-65
2023/04/26 11:29:23;;;;;;;1.48;1.38;;;;;;;20.84;33.77;101912.97;5065219;28;20107;-65
2023/04/26 11:31:56;;;;;;;2.10;1.30;;;;;;;20.89;33.57;101913.31;5068196;28;20674;-66